createdAt,value
2022-12-15T00:02:17.505Z,97754.25
2022-12-15T00:05:02.705Z,97769.47
2022-12-15T00:07:47.801Z,97710.09
2022-12-15T00:10:33.839Z,97719.13
2022-12-15T00:13:18.970Z,97719.31
2022-12-15T00:16:07.783Z,97754.25
2022-12-15T00:18:53.320Z,97736.16
2022-12-15T00:21:38.939Z,97735.19
2022-12-15T00:24:24.609Z,97744.41
2022-12-15T00:27:09.806Z,97724.84
2022-12-15T00:29:54.921Z,97741.44
2022-12-15T00:32:41.404Z,97744.75
2022-12-15T00:35:27.138Z,97726.19
2022-12-15T00:38:12.288Z,97732.56
2022-12-15T00:40:39.006Z,97693.59
2022-12-15T00:43:06.130Z,97721.69
2022-12-15T00:45:51.267Z,97669.88
2022-12-15T00:48:17.799Z,97657.84
2022-12-15T00:50:54.028Z,97698.63
2022-12-15T00:53:41.340Z,97707.97
2022-12-15T00:56:27.704Z,97680.56
2022-12-15T00:59:13.680Z,97710.53
2022-12-15T01:01:59.304Z,97699.97
2022-12-15T01:04:46.228Z,97680.75
2022-12-15T01:07:31.646Z,97672.88
2022-12-15T01:10:16.965Z,97671.56
2022-12-15T01:13:02.765Z,97698.31
2022-12-15T01:15:47.869Z,97667.34
2022-12-15T01:18:34.527Z,97671.56
2022-12-15T01:21:05.100Z,97676.25
2022-12-15T01:23:33.423Z,97628.72
2022-12-15T01:26:00.922Z,97672.03
2022-12-15T01:28:28.370Z,97640.28
2022-12-15T01:30:55.552Z,97659.16
2022-12-15T01:33:23.225Z,97673.22
2022-12-15T01:36:01.828Z,97682.59
2022-12-15T01:38:29.200Z,97687.25
2022-12-15T01:41:00.192Z,97659.34
2022-12-15T01:43:31.330Z,97689.13
2022-12-15T01:46:11.947Z,97676.72
2022-12-15T01:48:49.205Z,97670.19
2022-12-15T01:51:31.531Z,97644.44
2022-12-15T01:54:12.005Z,97642.44
2022-12-15T01:56:46.512Z,97606.69
2022-12-15T01:59:19.711Z,97592.63
2022-12-15T02:01:49.875Z,97589.31
2022-12-15T02:04:19.993Z,97653.13
2022-12-15T02:06:46.710Z,97635.38
2022-12-15T02:09:14.008Z,97621.34
2022-12-15T02:11:51.033Z,97633.53
2022-12-15T02:14:42.173Z,97645.19
2022-12-15T02:17:21.876Z,97636.69
2022-12-15T02:20:06.755Z,97642.88
2022-12-15T02:22:42.301Z,97642.16
2022-12-15T02:25:22.564Z,97630.94
2022-12-15T02:28:24.216Z,97637.34
2022-12-15T02:31:34.332Z,97639.19
2022-12-15T02:34:09.105Z,97648.03
2022-12-15T02:36:39.673Z,97648.00
2022-12-15T02:39:06.630Z,97595.72
2022-12-15T02:41:44.978Z,97657.69
2022-12-15T02:44:27.182Z,97661.38
2022-12-15T02:47:18.934Z,97652.31
2022-12-15T02:50:13.492Z,97658.53
2022-12-15T02:52:51.562Z,97655.00
2022-12-15T02:55:56.970Z,97645.81
2022-12-15T02:58:51.690Z,97672.25
2022-12-15T03:01:27.748Z,97661.34
2022-12-15T03:03:56.965Z,97612.19
2022-12-15T03:06:26.706Z,97643.59
2022-12-15T03:08:53.351Z,97647.59
2022-12-15T03:11:20.125Z,97632.72
2022-12-15T03:13:46.750Z,97630.28
2022-12-15T03:16:17.325Z,97663.88
2022-12-15T03:18:44.025Z,97633.59
2022-12-15T03:21:10.796Z,97660.19
2022-12-15T03:23:37.511Z,97646.31
2022-12-15T03:26:04.555Z,97653.97
2022-12-15T03:28:31.163Z,97649.31
2022-12-15T03:30:57.772Z,97640.75
2022-12-15T03:33:24.411Z,97625.25
2022-12-15T03:35:53.576Z,97619.38
2022-12-15T03:38:21.110Z,97609.97
2022-12-15T03:40:47.849Z,97568.53
2022-12-15T03:43:14.458Z,97607.78
2022-12-15T03:45:41.084Z,97564.69
2022-12-15T03:48:07.878Z,97567.28
2022-12-15T03:50:34.518Z,97596.47
2022-12-15T03:53:04.076Z,97550.28
2022-12-15T03:55:31.025Z,97542.28
2022-12-15T03:57:59.335Z,97545.25
2022-12-15T04:00:26.775Z,97582.63
2022-12-15T04:02:54.266Z,97597.31
2022-12-15T04:05:34.951Z,97611.59
2022-12-15T04:08:02.332Z,97619.31
2022-12-15T04:10:34.391Z,97588.91
2022-12-15T04:13:09.598Z,97598.81
2022-12-15T04:15:41.161Z,97626.72
2022-12-15T04:18:10.727Z,97602.84
2022-12-15T04:20:38.897Z,97613.56
2022-12-15T04:23:07.907Z,97624.44
2022-12-15T04:25:54.398Z,97619.38
2022-12-15T04:28:40.157Z,97584.81
2022-12-15T04:31:34.444Z,97614.19
2022-12-15T04:34:22.664Z,97615.50
2022-12-15T04:37:10.276Z,97607.13
2022-12-15T04:39:59.294Z,97604.00
2022-12-15T04:42:44.970Z,97638.44
2022-12-15T04:45:32.224Z,97595.66
2022-12-15T04:48:18.350Z,97615.53
2022-12-15T04:51:03.714Z,97619.38
2022-12-15T04:53:49.033Z,97616.88
2022-12-15T04:56:34.813Z,97635.97
2022-12-15T04:59:20.450Z,97605.81
2022-12-15T05:02:06.775Z,97590.09
2022-12-15T05:04:53.619Z,97616.09
2022-12-15T05:07:39.047Z,97602.25
2022-12-15T05:10:25.485Z,97616.47
2022-12-15T05:13:10.803Z,97610.50
2022-12-15T05:15:55.968Z,97629.22
2022-12-15T05:18:41.626Z,97648.09
2022-12-15T05:21:26.777Z,97643.59
2022-12-15T05:24:11.874Z,97639.41
2022-12-15T05:26:57.856Z,97619.00
2022-12-15T05:29:43.089Z,97664.81
2022-12-15T05:32:09.902Z,97659.44
2022-12-15T05:34:38.111Z,97643.09
2022-12-15T05:37:06.740Z,97657.94
2022-12-15T05:39:33.885Z,97627.88
2022-12-15T05:42:00.480Z,97658.13
2022-12-15T05:44:28.476Z,97674.03
2022-12-15T05:46:55.403Z,97685.38
2022-12-15T05:49:23.374Z,97689.41
2022-12-15T05:51:50.386Z,97626.41
2022-12-15T05:54:19.086Z,97677.69
2022-12-15T05:56:47.089Z,97687.88
2022-12-15T05:59:17.468Z,97643.13
2022-12-15T06:01:44.223Z,97649.44
2022-12-15T06:04:15.186Z,97666.50
2022-12-15T06:06:42.350Z,97678.41
2022-12-15T06:09:11.037Z,97649.03
2022-12-15T06:11:43.297Z,97673.44
2022-12-15T06:14:10.296Z,97676.31
2022-12-15T06:16:44.201Z,97670.00
2022-12-15T06:19:17.241Z,97677.88
2022-12-15T06:21:43.982Z,97702.50
2022-12-15T06:24:10.675Z,97683.06
2022-12-15T06:26:39.136Z,97695.44
2022-12-15T06:29:08.694Z,97713.44
2022-12-15T06:31:37.075Z,97718.66
2022-12-15T06:34:10.934Z,97680.03
2022-12-15T06:36:37.682Z,97713.31
2022-12-15T06:39:06.650Z,97691.91
2022-12-15T06:41:33.436Z,97700.91
2022-12-15T06:44:00.920Z,97724.00
2022-12-15T06:46:30.332Z,97724.66
2022-12-15T06:48:57.811Z,97713.97
2022-12-15T06:51:25.669Z,97753.94
2022-12-15T06:53:57.302Z,97738.34
2022-12-15T06:56:32.698Z,97733.84
2022-12-15T06:59:00.335Z,97733.81
2022-12-15T07:01:27.607Z,97761.06
2022-12-15T07:03:55.176Z,97766.94
2022-12-15T07:06:22.694Z,97793.22
2022-12-15T07:08:56.749Z,97792.22
2022-12-15T07:11:23.863Z,97797.94
2022-12-15T07:13:54.733Z,97797.94
2022-12-15T07:16:22.903Z,97796.22
2022-12-15T07:18:51.976Z,97786.44
2022-12-15T07:21:18.688Z,97795.28
2022-12-15T07:23:54.669Z,97799.63
2022-12-15T07:26:22.399Z,97752.44
2022-12-15T07:28:49.098Z,97752.88
2022-12-15T07:31:18.210Z,97779.53
2022-12-15T07:33:44.975Z,97797.66
2022-12-15T07:36:11.860Z,97774.69
2022-12-15T07:38:38.473Z,97802.41
2022-12-15T07:41:07.535Z,97809.13
2022-12-15T07:43:35.328Z,97799.19
2022-12-15T07:46:03.366Z,97834.22
2022-12-15T07:48:30.362Z,97845.34
2022-12-15T07:51:05.037Z,97804.16
2022-12-15T07:53:34.576Z,97806.88
2022-12-15T07:56:10.268Z,97808.44
2022-12-15T07:58:38.074Z,97788.25
2022-12-15T08:01:07.299Z,97832.47
2022-12-15T08:03:35.998Z,97811.44
2022-12-15T08:06:07.114Z,97803.28
2022-12-15T08:08:35.046Z,97826.59
2022-12-15T08:11:10.059Z,97838.56
2022-12-15T08:14:01.890Z,97858.28
2022-12-15T08:16:25.535Z,97849.44
2022-12-15T08:18:52.602Z,97834.34
2022-12-15T08:21:19.347Z,97862.28
2022-12-15T08:23:46.183Z,97874.44
2022-12-15T08:26:16.060Z,97865.88
2022-12-15T08:28:43.955Z,97861.03
2022-12-15T08:31:17.106Z,97874.13
2022-12-15T08:33:45.113Z,97861.44
2022-12-15T08:36:14.061Z,97876.75
2022-12-15T08:38:42.225Z,97875.22
2022-12-15T08:41:08.909Z,97880.75
2022-12-15T08:43:41.178Z,97880.44
2022-12-15T08:46:13.100Z,97866.69
2022-12-15T08:48:40.521Z,97855.28
2022-12-15T08:51:08.078Z,97852.38
2022-12-15T08:53:34.646Z,97868.63
2022-12-15T08:56:06.426Z,97878.38
2022-12-15T08:58:33.584Z,97866.66
2022-12-15T09:01:04.697Z,97887.47
2022-12-15T09:03:31.937Z,97887.19
2022-12-15T09:06:04.148Z,97839.03
2022-12-15T09:08:33.004Z,97858.25
2022-12-15T09:11:00.639Z,97886.50
2022-12-15T09:13:28.506Z,97888.00
2022-12-15T09:16:09.862Z,97880.88
2022-12-15T09:18:37.812Z,97836.56
2022-12-15T09:21:06.569Z,97874.78
2022-12-15T09:23:35.223Z,97877.03
2022-12-15T09:26:04.755Z,97889.94
2022-12-15T09:28:34.683Z,97894.13
2022-12-15T09:31:06.872Z,97898.53
2022-12-15T09:33:34.310Z,97881.97
2022-12-15T09:36:01.678Z,97894.00
2022-12-15T09:38:28.344Z,97887.50
2022-12-15T09:40:55.510Z,97880.72
2022-12-15T09:43:46.405Z,97841.00
2022-12-15T09:46:30.209Z,97886.81
2022-12-15T09:48:59.912Z,97883.22
2022-12-15T09:51:37.519Z,97907.47
2022-12-15T09:54:04.914Z,97902.50
2022-12-15T09:56:50.260Z,97885.00
2022-12-15T09:59:26.237Z,97912.78
2022-12-15T10:02:22.528Z,97921.63
2022-12-15T10:05:16.336Z,97916.69
2022-12-15T10:07:50.507Z,97900.09
2022-12-15T10:10:20.109Z,97916.47
2022-12-15T10:15:50.653Z,97903.81
2022-12-15T10:18:33.728Z,97915.25
2022-12-15T10:21:02.486Z,97919.34
2022-12-15T10:23:29.666Z,97890.31
2022-12-15T10:26:19.328Z,97891.22
2022-12-15T10:29:10.415Z,97934.91
2022-12-15T10:31:43.631Z,97909.31
2022-12-15T10:34:23.846Z,97917.50
2022-12-15T10:36:52.327Z,97928.19
2022-12-15T10:39:21.140Z,97933.41
2022-12-15T10:42:21.173Z,97936.41
2022-12-15T10:44:50.871Z,97928.22
2022-12-15T10:47:17.546Z,97941.78
2022-12-15T10:49:44.478Z,97939.63
2022-12-15T10:52:32.265Z,97921.28
2022-12-15T10:54:58.881Z,97915.81
2022-12-15T10:57:29.722Z,97939.41
2022-12-15T11:00:15.227Z,97911.28
2022-12-15T11:02:43.167Z,97929.91
2022-12-15T11:05:15.729Z,97926.69
2022-12-15T11:07:51.851Z,97923.69
2022-12-15T11:10:28.328Z,97931.69
2022-12-15T11:13:14.757Z,97920.94
2022-12-15T11:15:56.563Z,97930.69
2022-12-15T11:18:29.246Z,97920.13
2022-12-15T11:21:24.867Z,97909.94
2022-12-15T11:24:13.301Z,97933.13
2022-12-15T11:26:42.886Z,97933.94
2022-12-15T11:29:21.259Z,97931.44
2022-12-15T11:31:48.963Z,97926.38
2022-12-15T11:34:18.771Z,97936.25
2022-12-15T11:37:08.481Z,97953.75
2022-12-15T11:39:43.181Z,97934.75
2022-12-15T11:42:12.862Z,97967.25
2022-12-15T11:44:51.365Z,97967.00
2022-12-15T11:47:25.599Z,97940.13
2022-12-15T11:50:06.222Z,97982.06
2022-12-15T11:52:38.761Z,97983.72
2022-12-15T11:55:14.122Z,97974.03
2022-12-15T11:58:06.411Z,97949.81
2022-12-15T12:00:43.518Z,97968.44
2022-12-15T12:03:28.727Z,97976.03
2022-12-15T12:06:10.615Z,97972.72
2022-12-15T12:08:43.373Z,97964.91
2022-12-15T12:11:20.420Z,97955.59
2022-12-15T12:14:12.060Z,97971.47
2022-12-15T12:16:59.425Z,97970.44
2022-12-15T12:19:41.783Z,97966.63
2022-12-15T12:22:20.670Z,97973.84
2022-12-15T12:25:01.230Z,97969.50
2022-12-15T12:27:43.108Z,97972.69
2022-12-15T12:30:15.748Z,97933.03
2022-12-15T12:33:09.836Z,97976.91
2022-12-15T12:36:06.057Z,97971.88
2022-12-15T12:38:41.409Z,97976.56
2022-12-15T12:41:16.332Z,97943.66
2022-12-15T12:46:40.648Z,97962.34
2022-12-15T12:49:26.089Z,97993.38
2022-12-15T12:51:57.043Z,97985.78
2022-12-15T12:54:32.813Z,98005.03
2022-12-15T12:56:59.909Z,97991.00
2022-12-15T12:59:29.602Z,98011.94
2022-12-15T13:02:31.745Z,98002.50
2022-12-15T13:05:00.129Z,98014.75
2022-12-15T13:07:37.984Z,98012.16
2022-12-15T13:10:04.646Z,98017.22
2022-12-15T13:12:51.630Z,98022.03
2022-12-15T13:15:28.899Z,98025.16
2022-12-15T13:18:06.527Z,98002.72
2022-12-15T13:20:37.047Z,98014.44
2022-12-15T13:23:35.241Z,98046.47
2022-12-15T13:26:12.916Z,98045.69
2022-12-15T13:28:45.570Z,98052.78
2022-12-15T13:34:16.850Z,98057.44
2022-12-15T13:36:54.435Z,98047.19
2022-12-15T13:39:27.884Z,98056.69
2022-12-15T13:44:55.369Z,98067.69
2022-12-15T13:47:29.172Z,98052.06
2022-12-15T13:50:12.901Z,98077.47
2022-12-15T13:55:51.150Z,98073.75
2022-12-15T13:58:20.228Z,98080.34
2022-12-15T14:00:55.910Z,98077.63
2022-12-15T14:03:23.390Z,98020.81
2022-12-15T14:05:58.693Z,98074.56
2022-12-15T14:08:28.968Z,98044.06
2022-12-15T14:11:00.204Z,98072.28
2022-12-15T14:13:35.566Z,98020.66
2022-12-15T14:16:14.652Z,98057.41
2022-12-15T14:18:43.334Z,98037.53
2022-12-15T14:21:25.150Z,98047.63
2022-12-15T14:24:19.642Z,98049.06
2022-12-15T14:26:41.692Z,98073.69
2022-12-15T14:29:10.647Z,98053.94
2022-12-15T14:31:38.266Z,98074.69
2022-12-15T14:34:32.425Z,98081.44
2022-12-15T14:37:03.784Z,98069.00
2022-12-15T14:39:43.219Z,98053.53
2022-12-15T14:42:21.883Z,98085.69
2022-12-15T14:44:50.836Z,98045.16
2022-12-15T14:47:27.313Z,98093.88
2022-12-15T14:49:56.762Z,98054.28
2022-12-15T14:52:43.047Z,98036.25
2022-12-15T14:55:21.730Z,98107.97
2022-12-15T14:57:52.957Z,98062.75
2022-12-15T15:00:35.707Z,98118.75
2022-12-15T15:03:09.322Z,98060.56
2022-12-15T15:03:10.261Z,97913.31
2022-12-15T15:03:12.901Z,97948.59
2022-12-15T15:03:19.725Z,98116.97
2022-12-15T15:05:51.578Z,98079.06
2022-12-15T15:08:45.504Z,98119.72
2022-12-15T15:11:36.001Z,98091.91
2022-12-15T15:14:20.612Z,98056.25
2022-12-15T15:17:18.174Z,98083.09
2022-12-15T15:19:52.383Z,98125.72
2022-12-15T15:22:42.944Z,98126.78
2022-12-15T15:25:22.323Z,98124.63
2022-12-15T15:27:49.752Z,98111.84
2022-12-15T15:30:39.086Z,98129.91
2022-12-15T15:33:08.947Z,98137.66
2022-12-15T15:35:35.547Z,98095.53
2022-12-15T15:38:07.549Z,98115.19
2022-12-15T15:40:34.173Z,98128.81
2022-12-15T15:43:00.781Z,98156.53
2022-12-15T15:45:27.739Z,98139.78
2022-12-15T15:47:56.005Z,98139.97
2022-12-15T15:50:29.236Z,98176.41
2022-12-15T15:52:57.330Z,98167.50
2022-12-15T15:55:36.236Z,98146.59
2022-12-15T15:58:11.375Z,98152.13
2022-12-15T16:00:38.170Z,98173.94
2022-12-15T16:03:05.044Z,98176.28
2022-12-15T16:05:32.173Z,98170.78
2022-12-15T16:08:00.715Z,98204.16
2022-12-15T16:10:28.182Z,98192.91
2022-12-15T16:12:57.608Z,98210.72
2022-12-15T16:15:26.642Z,98222.94
2022-12-15T16:17:54.018Z,98168.91
2022-12-15T16:20:23.092Z,98220.59
2022-12-15T16:23:05.504Z,98212.06
2022-12-15T16:25:50.978Z,98225.66
2022-12-15T16:28:24.112Z,98166.06
2022-12-15T16:30:51.658Z,98218.91
2022-12-15T16:33:18.868Z,98184.50
2022-12-15T16:35:48.354Z,98210.38
2022-12-15T16:38:31.029Z,98217.41
2022-12-15T16:41:06.826Z,98210.69
2022-12-15T16:43:39.073Z,98216.56
2022-12-15T16:46:07.271Z,98232.34
2022-12-15T16:48:34.544Z,98209.84
2022-12-15T16:51:02.674Z,98222.94
2022-12-15T16:53:32.230Z,98212.53
2022-12-15T16:56:06.128Z,98248.31
2022-12-15T16:58:35.765Z,98244.41
2022-12-15T17:01:02.623Z,98229.16
2022-12-15T17:03:29.529Z,98247.59
2022-12-15T17:05:59.441Z,98254.00
2022-12-15T17:08:37.187Z,98236.34
2022-12-15T17:11:04.653Z,98239.72
2022-12-15T17:13:45.667Z,98266.56
2022-12-15T17:16:16.115Z,98245.09
2022-12-15T17:18:44.534Z,98250.63
2022-12-15T17:21:18.668Z,98242.03
2022-12-15T17:23:47.794Z,98246.91
2022-12-15T17:26:44.646Z,98275.13
2022-12-15T17:29:20.311Z,98251.06
2022-12-15T17:31:47.035Z,98274.25
2022-12-15T17:34:31.320Z,98257.66
2022-12-15T17:37:00.957Z,98276.94
2022-12-15T17:39:28.637Z,98262.31
2022-12-15T17:42:01.035Z,98255.59
2022-12-15T17:44:35.531Z,98277.63
2022-12-15T17:47:05.786Z,98255.09
2022-12-15T17:49:36.110Z,98278.63
2022-12-15T17:52:16.889Z,98301.59
2022-12-15T17:54:43.876Z,98280.31
2022-12-15T17:57:13.050Z,98296.94
2022-12-15T17:59:39.767Z,98271.69
2022-12-15T18:02:06.498Z,98262.81
2022-12-15T18:04:33.379Z,98274.56
2022-12-15T18:07:02.321Z,98293.88
2022-12-15T18:09:29.893Z,98309.97
2022-12-15T18:11:58.237Z,98320.72
2022-12-15T18:14:24.927Z,98313.88
2022-12-15T18:16:51.601Z,98300.72
2022-12-15T18:19:18.414Z,98272.38
2022-12-15T18:21:45.107Z,98275.56
2022-12-15T18:24:13.816Z,98315.84
2022-12-15T18:26:40.607Z,98271.88
2022-12-15T18:29:18.068Z,98328.91
2022-12-15T18:31:47.007Z,98289.25
2022-12-15T18:34:18.253Z,98304.06
2022-12-15T18:36:45.182Z,98335.97
2022-12-15T18:39:20.495Z,98313.47
2022-12-15T18:41:48.786Z,98347.56
2022-12-15T18:44:27.321Z,98334.59
2022-12-15T18:46:55.073Z,98344.00
2022-12-15T18:49:23.316Z,98343.34
2022-12-15T18:51:50.595Z,98317.31
2022-12-15T18:54:20.957Z,98330.03
2022-12-15T18:56:48.129Z,98311.41
2022-12-15T18:59:17.080Z,98337.31
2022-12-15T19:01:45.791Z,98284.22
2022-12-15T19:04:13.264Z,98297.13
2022-12-15T19:06:43.009Z,98303.66
2022-12-15T19:09:17.371Z,98337.97
2022-12-15T19:12:06.090Z,98335.59
2022-12-15T19:14:41.713Z,98322.66
2022-12-15T19:17:45.496Z,98351.50
2022-12-15T19:20:38.442Z,98356.72
2022-12-15T19:23:05.759Z,98341.56
2022-12-15T19:25:33.354Z,98364.56
2022-12-15T19:28:00.884Z,98347.22
2022-12-15T19:30:31.000Z,98365.03
2022-12-15T19:32:59.183Z,98319.50
2022-12-15T19:35:27.642Z,98362.06
2022-12-15T19:37:56.913Z,98367.09
2022-12-15T19:40:31.177Z,98384.56
2022-12-15T19:43:00.901Z,98387.38
2022-12-15T19:45:30.032Z,98381.97
2022-12-15T19:47:57.231Z,98355.78
2022-12-15T19:50:31.076Z,98392.22
2022-12-15T19:53:05.243Z,98371.44
2022-12-15T19:55:34.134Z,98349.19
2022-12-15T19:58:06.549Z,98341.72
2022-12-15T20:00:33.267Z,98376.34
2022-12-15T20:03:00.146Z,98376.38
2022-12-15T20:05:27.019Z,98381.94
2022-12-15T20:07:54.852Z,98367.78
2022-12-15T20:10:29.344Z,98409.47
2022-12-15T20:12:59.019Z,98397.00
2022-12-15T20:15:26.323Z,98393.13
2022-12-15T20:17:57.476Z,98388.44
2022-12-15T20:20:26.995Z,98410.31
2022-12-15T20:22:56.502Z,98379.81
2022-12-15T20:25:28.112Z,98408.56
2022-12-15T20:27:55.271Z,98369.34
2022-12-15T20:30:25.517Z,98403.97
2022-12-15T20:32:52.728Z,98381.69
2022-12-15T20:35:21.890Z,98406.72
2022-12-15T20:37:49.225Z,98406.25
2022-12-15T20:40:25.903Z,98378.28
2022-12-15T20:42:54.246Z,98406.66
2022-12-15T20:45:24.537Z,98410.13
2022-12-15T20:47:53.279Z,98392.63
2022-12-15T20:50:26.877Z,98401.25
2022-12-15T20:52:55.136Z,98392.00
2022-12-15T20:55:22.100Z,98395.81
2022-12-15T20:57:49.113Z,98389.84
2022-12-15T21:00:18.097Z,98419.06
2022-12-15T21:02:46.293Z,98403.97
2022-12-15T21:05:22.335Z,98354.91
2022-12-15T21:07:49.750Z,98406.34
2022-12-15T21:10:19.825Z,98360.94
2022-12-15T21:12:48.509Z,98407.88
2022-12-15T21:15:21.800Z,98374.44
2022-12-15T21:18:17.020Z,98381.44
2022-12-15T21:20:42.475Z,98413.22
2022-12-15T21:23:41.073Z,98416.13
2022-12-15T21:26:11.441Z,98402.13
2022-12-15T21:28:38.136Z,98379.94
2022-12-15T21:31:04.943Z,98408.56
2022-12-15T21:33:32.483Z,98358.38
2022-12-15T21:36:00.194Z,98392.16
2022-12-15T21:38:29.688Z,98424.31
2022-12-15T21:40:59.929Z,98405.56
2022-12-15T21:43:29.704Z,98427.63
2022-12-15T21:45:56.994Z,98383.78
2022-12-15T21:48:43.279Z,98387.16
2022-12-15T21:51:16.314Z,98427.31
2022-12-15T21:53:44.869Z,98419.53
2022-12-15T21:56:19.062Z,98413.47
2022-12-15T21:58:49.089Z,98360.66
2022-12-15T22:01:20.079Z,98423.94
2022-12-15T22:03:54.744Z,98385.28
2022-12-15T22:06:24.886Z,98425.69
2022-12-15T22:08:58.758Z,98408.81
2022-12-15T22:11:28.096Z,98425.38
2022-12-15T22:13:57.185Z,98381.56
2022-12-15T22:16:24.576Z,98392.72
2022-12-15T22:18:54.821Z,98418.34
2022-12-15T22:21:23.171Z,98381.63
2022-12-15T22:23:50.950Z,98372.03
2022-12-15T22:26:37.485Z,98421.78
2022-12-15T22:29:21.536Z,98382.22
2022-12-15T22:31:52.334Z,98404.19
2022-12-15T22:34:21.094Z,98416.28
2022-12-15T22:36:48.619Z,98408.88
2022-12-15T22:39:15.341Z,98354.72
2022-12-15T22:41:48.294Z,98413.28
2022-12-15T22:44:26.706Z,98416.41
2022-12-15T22:46:59.569Z,98400.78
2022-12-15T22:49:34.531Z,98374.13
2022-12-15T22:52:01.209Z,98405.50
2022-12-15T22:54:29.695Z,98401.75
2022-12-15T22:57:04.071Z,98417.19
2022-12-15T22:59:41.357Z,98383.84
2022-12-15T23:02:09.286Z,98374.13
2022-12-15T23:04:36.570Z,98406.41
2022-12-15T23:07:07.595Z,98376.53
2022-12-15T23:09:35.257Z,98355.69
2022-12-15T23:12:01.952Z,98382.56
2022-12-15T23:14:46.777Z,98391.22
2022-12-15T23:17:13.868Z,98408.19
2022-12-15T23:19:49.803Z,98399.00
2022-12-15T23:22:16.444Z,98378.13
2022-12-15T23:24:43.574Z,98415.41
2022-12-15T23:27:11.506Z,98426.53
2022-12-15T23:29:38.138Z,98376.44
2022-12-15T23:32:06.390Z,98395.16
2022-12-15T23:34:33.263Z,98370.53
2022-12-15T23:36:59.922Z,98356.09
2022-12-15T23:39:26.544Z,98350.09
2022-12-15T23:41:54.342Z,98363.34
2022-12-15T23:44:21.424Z,98334.97
2022-12-15T23:46:49.267Z,98357.13
2022-12-15T23:49:15.977Z,98404.56
2022-12-15T23:51:42.740Z,98367.38
2022-12-15T23:54:10.184Z,98350.00
2022-12-15T23:56:39.339Z,98399.47
2022-12-15T23:59:06.322Z,98362.81
